Time;durP1;ratioP1;P1;durP2;ratioP2;P2;SDS_P1;SDS_P2;PMS_P1;PMS_P2;Temp;Humidity;BMP_temperature;BMP_pressure;BME280_temperature;BME280_humidity;BME280_pressure;Samples;Min_cycle;Max_cycle;Signal;HPM_P1;HPM_P2
2022/07/04 00:01:06;;;;;;;3.07;2.80;;;;;;;22.15;64.68;157060.78;5046238;28;20494;-84
2022/07/04 00:03:32;;;;;;;3.37;3.07;;;;;;;22.07;63.26;157041.22;5032530;28;20801;-85
2022/07/04 00:05:59;;;;;;;3.73;3.43;;;;;;;21.99;63.64;157019.00;5050162;28;21071;-85
2022/07/04 00:08:26;;;;;;;3.17;2.87;;;;;;;21.92;63.10;157000.72;5049658;28;20465;-83
2022/07/04 00:10:52;;;;;;;3.50;3.20;;;;;;;21.87;64.60;156987.69;5049668;28;20435;-84
2022/07/04 00:13:19;;;;;;;3.50;2.70;;;;;;;21.82;63.75;156977.16;5048741;28;20543;-84
2022/07/04 00:15:46;;;;;;;4.03;2.97;;;;;;;21.82;63.90;156977.16;5049642;28;20991;-84
2022/07/04 00:18:14;;;;;;;5.90;3.17;;;;;;;21.76;63.34;156960.22;5051015;28;20509;-84
2022/07/04 00:20:41;;;;;;;3.70;3.40;;;;;;;21.77;64.62;156964.09;5048575;28;20494;-83
2022/07/04 00:23:07;;;;;;;3.07;2.80;;;;;;;21.77;64.95;156964.09;5049743;28;20461;-83
2022/07/04 00:25:34;;;;;;;9.83;2.90;;;;;;;21.79;63.81;156968.00;5031254;28;20459;-83
2022/07/04 00:28:01;;;;;;;3.70;3.30;;;;;;;21.72;63.46;156951.06;5038875;28;20557;-83
2022/07/04 00:30:28;;;;;;;4.00;3.70;;;;;;;21.65;63.51;156932.78;5050382;28;20857;-82
2022/07/04 00:32:54;;;;;;;3.77;3.47;;;;;;;21.63;64.10;156926.28;5049074;28;20553;-82
2022/07/04 00:35:22;;;;;;;3.07;2.87;;;;;;;21.60;64.49;156919.75;5050171;28;20431;-83
2022/07/04 00:37:49;;;;;;;6.40;3.17;;;;;;;21.54;65.50;156904.06;5049182;28;20542;-83
2022/07/04 00:40:16;;;;;;;3.33;3.03;;;;;;;21.54;64.28;156904.06;5049264;28;20508;-82
2022/07/04 00:42:44;;;;;;;4.47;3.10;;;;;;;21.48;65.16;156887.06;5045543;28;20474;-82
2022/07/04 00:45:11;;;;;;;3.63;3.23;;;;;;;21.43;65.49;156875.34;5046310;28;20535;-82
2022/07/04 00:47:37;;;;;;;3.43;2.90;;;;;;;21.44;64.49;156876.66;5047472;28;20557;-82
2022/07/04 00:50:05;;;;;;;7.97;3.30;;;;;;;21.48;65.67;156888.38;5048975;28;20844;-82
2022/07/04 00:52:33;;;;;;;3.00;2.80;;;;;;;21.40;66.65;156867.50;5049204;28;20545;-82
2022/07/04 00:55:00;;;;;;;3.30;3.00;;;;;;;21.36;65.15;156857.09;5050506;28;20427;-82
2022/07/04 00:57:28;;;;;;;6.13;3.40;;;;;;;21.33;64.19;156847.94;5046877;28;20981;-82
2022/07/04 00:59:54;;;;;;;5.03;3.30;;;;;;;21.28;64.58;156836.19;5049968;28;20459;-83
2022/07/04 01:02:21;;;;;;;3.47;3.17;;;;;;;21.24;64.84;156825.72;5038870;28;20443;-82
2022/07/04 01:04:48;;;;;;;5.17;3.13;;;;;;;21.20;66.44;156815.31;5051137;28;20446;-82
2022/07/04 01:07:15;;;;;;;3.30;3.10;;;;;;;21.17;65.42;156807.47;5050012;28;20454;-82
2022/07/04 01:09:43;;;;;;;2.90;2.70;;;;;;;21.20;66.55;156816.63;5053598;28;20465;-82
2022/07/04 01:12:10;;;;;;;3.23;2.93;;;;;;;21.08;65.00;156783.97;5052930;28;20497;-82
2022/07/04 01:14:38;;;;;;;5.23;3.00;;;;;;;21.08;65.00;156783.97;5052611;28;21007;-82
2022/07/04 01:17:06;;;;;;;3.27;2.97;;;;;;;21.02;65.90;156768.28;5050244;28;20992;-82
2022/07/04 01:19:32;;;;;;;3.60;3.30;;;;;;;20.91;65.81;156740.88;5054584;28;20781;-82
2022/07/04 01:22:07;;;;;;;3.60;3.07;;;;;;;20.95;66.32;156751.31;5069616;28;20458;-82
2022/07/04 01:24:34;;;;;;;3.70;3.37;;;;;;;20.96;67.06;156752.63;5052206;28;20508;-82
2022/07/04 01:27:00;;;;;;;3.47;3.20;;;;;;;20.94;66.14;156748.69;5052443;28;20840;-82
2022/07/04 01:29:27;;;;;;;4.50;3.17;;;;;;;20.95;66.22;156751.31;5054004;28;20441;-82
2022/07/04 01:31:54;;;;;;;3.60;3.30;;;;;;;20.91;67.83;156740.88;5052103;28;20449;-82
2022/07/04 01:34:21;;;;;;;3.07;2.70;;;;;;;20.85;66.39;156725.22;5047178;28;20447;-82
2022/07/04 01:36:47;;;;;;;3.17;2.80;;;;;;;20.87;67.43;156729.09;5051800;28;20458;-82
2022/07/04 01:39:15;;;;;;;4.10;3.73;;;;;;;20.81;67.55;156713.47;5053485;28;20439;-82
2022/07/04 01:41:42;;;;;;;3.63;3.33;;;;;;;20.81;66.87;156714.75;5052923;28;20459;-82
2022/07/04 01:44:09;;;;;;;7.63;3.73;;;;;;;20.76;67.53;156700.44;5053132;28;20874;-82
2022/07/04 01:46:36;;;;;;;3.70;3.40;;;;;;;20.76;66.60;156700.44;5053364;28;20526;-82
2022/07/04 01:49:02;;;;;;;3.33;2.80;;;;;;;20.68;68.01;156679.56;5053559;28;20435;-82
2022/07/04 01:51:29;;;;;;;3.60;3.17;;;;;;;20.69;67.48;156682.16;5038550;28;20926;-82
2022/07/04 01:53:56;;;;;;;3.13;2.83;;;;;;;20.67;67.41;156678.25;5034493;28;20442;-82
2022/07/04 01:56:24;;;;;;;3.77;3.10;;;;;;;20.67;67.21;156676.94;5050005;28;20458;-82
2022/07/04 01:58:51;;;;;;;4.93;3.07;;;;;;;20.71;67.78;156688.66;5052300;28;20488;-82
2022/07/04 02:01:31;;;;;;;3.23;2.67;;;;;;;20.63;68.34;156667.78;5051848;28;20601;-82
2022/07/04 02:03:58;;;;;;;3.67;3.30;;;;;;;20.58;68.67;156656.06;5042710;28;20813;-82
2022/07/04 02:06:25;;;;;;;3.83;3.53;;;;;;;20.51;68.44;156637.81;5058866;28;20488;-82
2022/07/04 02:14:22;;;;;;;5.27;3.30;;;;;;;20.44;68.37;156619.53;5051915;28;20451;-82
2022/07/04 02:16:49;;;;;;;4.10;3.20;;;;;;;20.48;68.80;156629.97;5053273;28;20458;-82
2022/07/04 02:19:16;;;;;;;3.77;3.47;;;;;;;20.44;70.01;156619.53;5032816;28;20522;-82
2022/07/04 02:21:43;;;;;;;3.87;3.47;;;;;;;20.31;69.89;156584.31;5034908;28;20903;-82
2022/07/04 02:24:10;;;;;;;3.83;3.30;;;;;;;20.28;70.23;156577.78;5046237;28;20527;-82
2022/07/04 02:26:38;;;;;;;4.40;3.43;;;;;;;20.25;69.51;156570.00;5033639;28;20494;-82
2022/07/04 02:29:05;;;;;;;3.40;3.10;;;;;;;20.22;69.84;156562.13;5046336;28;20446;-82
2022/07/04 02:31:32;;;;;;;5.77;3.43;;;;;;;20.20;69.62;156556.84;5053249;28;20821;-84
2022/07/04 02:33:59;;;;;;;3.30;3.00;;;;;;;20.20;69.86;156556.84;5048851;28;20486;-82
2022/07/04 02:36:26;;;;;;;2.90;2.70;;;;;;;20.21;70.03;156559.50;5024783;28;20530;-82
2022/07/04 02:38:53;;;;;;;3.67;3.37;;;;;;;20.19;69.96;156552.97;5042588;28;20571;-82
2022/07/04 02:41:19;;;;;;;5.80;3.40;;;;;;;20.15;71.02;156543.81;5042059;28;20455;-83
2022/07/04 02:43:52;;;;;;;3.60;3.30;;;;;;;20.15;70.59;156542.56;5042587;28;20426;-82
2022/07/04 02:46:19;;;;;;;4.43;3.40;;;;;;;20.21;70.13;156558.19;5042349;28;20535;-82
2022/07/04 02:48:50;;;;;;;4.00;3.23;;;;;;;20.16;70.52;156546.44;5024259;28;20462;-83
2022/07/04 02:51:19;;;;;;;4.93;3.20;;;;;;;20.07;71.80;156522.94;5043815;28;20978;-83
2022/07/04 02:53:46;;;;;;;3.57;3.10;;;;;;;20.04;70.86;156515.19;5051367;28;20459;-82
2022/07/04 02:56:13;;;;;;;3.63;3.17;;;;;;;20.03;71.04;156512.53;5053279;28;20577;-83
2022/07/04 02:58:40;;;;;;;3.80;3.50;;;;;;;19.98;71.36;156499.50;5052728;28;20467;-82
2022/07/04 03:01:08;;;;;;;3.33;2.93;;;;;;;19.93;71.00;156486.47;5052672;28;20443;-83
2022/07/04 03:03:35;;;;;;;3.10;2.80;;;;;;;19.88;71.29;156474.69;5052626;28;20435;-82
2022/07/04 03:06:02;;;;;;;4.27;3.63;;;;;;;19.86;70.89;156468.19;5052865;28;20435;-82
2022/07/04 03:08:28;;;;;;;4.20;3.30;;;;;;;19.80;72.51;156452.59;5044471;28;20478;-82
2022/07/04 03:10:55;;;;;;;3.47;3.17;;;;;;;19.78;71.62;156447.31;5033446;28;20435;-83
2022/07/04 03:13:22;;;;;;;6.90;3.37;;;;;;;19.77;71.23;156446.06;5067352;28;20508;-82
2022/07/04 03:15:48;;;;;;;4.07;3.67;;;;;;;19.77;71.90;156444.75;5052699;28;21175;-82
2022/07/04 03:18:17;;;;;;;3.33;3.10;;;;;;;19.77;72.69;156444.75;5054502;28;20482;-82
2022/07/04 03:20:43;;;;;;;3.53;3.13;;;;;;;19.69;72.29;156423.88;5053729;28;20442;-83
2022/07/04 03:23:10;;;;;;;3.90;3.07;;;;;;;19.68;72.81;156421.25;5052477;28;20439;-74
2022/07/04 03:25:37;;;;;;;4.00;3.20;;;;;;;19.60;72.24;156400.41;5051083;28;20421;-74
2022/07/04 03:28:04;;;;;;;4.07;3.50;;;;;;;19.56;72.61;156391.31;5051829;28;20538;-75
2022/07/04 03:30:31;;;;;;;4.17;3.77;;;;;;;19.53;72.38;156382.16;5048537;28;20955;-75
2022/07/04 03:32:58;;;;;;;3.40;3.10;;;;;;;19.45;73.29;156362.63;5042024;28;20553;-75
2022/07/04 03:35:26;;;;;;;3.40;3.10;;;;;;;19.39;73.60;156348.28;5050656;28;20873;-75
2022/07/04 03:37:53;;;;;;;3.60;3.30;;;;;;;19.39;74.08;156348.28;5050678;28;20902;-75
2022/07/04 03:40:21;;;;;;;3.27;2.97;;;;;;;19.39;72.53;156348.28;5049369;28;20458;-75
2022/07/04 03:42:48;;;;;;;4.33;3.50;;;;;;;19.38;74.02;156344.34;5051623;28;20534;-75
2022/07/04 03:45:14;;;;;;;3.90;3.10;;;;;;;19.43;74.15;156357.41;5049993;28;20474;-75
2022/07/04 03:47:41;;;;;;;3.40;2.70;;;;;;;19.40;73.90;156349.59;5049445;28;20655;-75
2022/07/04 03:50:09;;;;;;;3.73;3.43;;;;;;;19.37;73.03;156341.72;5018513;28;20450;-75
2022/07/04 03:52:37;;;;;;;3.67;3.37;;;;;;;19.35;74.27;156336.50;5047973;28;20462;-75
2022/07/04 03:55:04;;;;;;;3.30;3.00;;;;;;;19.35;73.52;156337.78;5049505;28;20867;-75
2022/07/04 03:57:30;;;;;;;3.80;3.43;;;;;;;19.27;73.58;156316.91;5048620;28;20474;-75
2022/07/04 03:59:57;;;;;;;4.37;3.00;;;;;;;19.30;73.94;156324.75;5048468;28;20628;-75
2022/07/04 04:02:24;;;;;;;4.30;3.90;;;;;;;19.26;74.42;156314.34;5028962;28;20444;-75
2022/07/04 04:07:35;;;;;;;3.80;3.23;;;;;;;19.15;73.42;156285.66;5039032;28;20866;-75
2022/07/04 04:10:03;;;;;;;6.93;3.10;;;;;;;19.22;73.71;156302.63;5040220;28;20950;-74
2022/07/04 04:12:30;;;;;;;3.77;3.37;;;;;;;19.20;73.80;156298.69;5032266;28;20506;-75
2022/07/04 04:14:56;;;;;;;4.37;3.60;;;;;;;19.19;74.20;156296.13;5049006;28;20922;-75
2022/07/04 04:17:23;;;;;;;3.50;3.20;;;;;;;19.21;74.26;156301.31;5049320;28;20977;-75
2022/07/04 04:19:50;;;;;;;3.60;3.30;;;;;;;19.19;74.41;156294.81;5032837;28;21016;-75
2022/07/04 04:22:16;;;;;;;3.17;2.87;;;;;;;19.18;74.44;156292.19;5040864;28;20466;-75
2022/07/04 04:24:43;;;;;;;6.10;3.50;;;;;;;19.21;75.08;156301.31;5046647;28;20464;-75
2022/07/04 04:27:12;;;;;;;3.90;3.60;;;;;;;19.20;74.53;156297.38;5049850;28;20454;-75
2022/07/04 04:29:39;;;;;;;4.30;3.37;;;;;;;19.23;73.59;156306.53;5049753;28;20666;-75
2022/07/04 04:32:06;;;;;;;3.20;2.73;;;;;;;19.26;73.63;156314.34;5050125;28;20451;-74
2022/07/04 04:34:33;;;;;;;4.07;3.67;;;;;;;19.29;74.49;156320.84;5050217;28;20918;-74
2022/07/04 04:37:00;;;;;;;3.77;3.30;;;;;;;19.30;73.46;156324.75;5032878;28;20481;-75
2022/07/04 04:39:27;;;;;;;4.90;2.83;;;;;;;19.30;73.62;156323.47;5036166;28;20464;-74
2022/07/04 04:41:54;;;;;;;4.10;3.70;;;;;;;19.26;73.35;156314.34;5031647;28;20443;-74
2022/07/04 04:44:22;;;;;;;4.30;3.13;;;;;;;19.21;73.68;156301.31;5051976;28;20483;-75
2022/07/04 04:46:48;;;;;;;3.40;3.10;;;;;;;19.27;74.20;156316.91;5054999;28;20446;-74
2022/07/04 04:49:16;;;;;;;3.37;3.07;;;;;;;19.33;73.69;156332.56;5047971;28;20458;-74
2022/07/04 04:51:43;;;;;;;3.70;3.40;;;;;;;19.32;73.53;156328.69;5053825;28;20467;-74
2022/07/04 04:54:10;;;;;;;5.43;3.40;;;;;;;19.36;73.27;156339.09;5052895;28;20841;-74
2022/07/04 04:56:37;;;;;;;7.53;3.20;;;;;;;19.40;74.04;156349.59;5036886;28;20444;-77
2022/07/04 04:59:04;;;;;;;3.23;2.93;;;;;;;19.43;73.46;156358.69;5036372;28;20481;-77
2022/07/04 05:01:32;;;;;;;3.27;3.00;;;;;;;19.34;73.69;156335.19;5044380;28;20548;-74
2022/07/04 05:03:59;;;;;;;3.40;3.03;;;;;;;19.42;73.66;156356.09;5056051;28;20453;-74
2022/07/04 05:06:25;;;;;;;3.20;2.97;;;;;;;19.54;73.85;156384.78;5035837;28;20451;-74
2022/07/04 05:08:52;;;;;;;4.60;2.93;;;;;;;19.65;73.99;156413.44;5042782;28;20885;-74
2022/07/04 05:11:19;;;;;;;4.00;3.00;;;;;;;19.66;72.33;156416.06;5052929;28;20446;-74
2022/07/04 05:13:46;;;;;;;9.23;2.90;;;;;;;19.65;72.46;156414.75;5036920;28;20482;-74
2022/07/04 05:16:13;;;;;;;4.57;2.93;;;;;;;19.74;72.13;156436.91;5050633;28;20898;-74
2022/07/04 05:18:41;;;;;;;5.80;2.77;;;;;;;19.70;71.78;156426.47;5054696;28;20498;-74
2022/07/04 05:21:08;;;;;;;3.40;3.10;;;;;;;19.66;73.14;156416.06;5049503;28;20489;-74
2022/07/04 05:23:34;;;;;;;4.20;3.43;;;;;;;19.69;72.58;156423.88;5049327;28;20786;-76
2022/07/04 05:26:01;;;;;;;3.30;3.00;;;;;;;19.68;72.42;156421.25;5057989;28;20861;-76
2022/07/04 05:28:28;;;;;;;3.60;3.30;;;;;;;19.65;73.58;156413.44;5053664;28;20504;-76
2022/07/04 05:30:54;;;;;;;3.90;3.13;;;;;;;19.66;72.94;156417.38;5056139;28;20525;-77
2022/07/04 05:33:21;;;;;;;3.07;2.87;;;;;;;19.65;72.68;156414.75;5039598;28;20475;-76
2022/07/04 05:35:49;;;;;;;2.97;2.77;;;;;;;19.68;73.17;156421.25;5055074;28;20742;-76
2022/07/04 05:38:16;;;;;;;3.90;3.10;;;;;;;19.75;72.48;156439.56;5055512;28;20466;-76
2022/07/04 05:40:43;;;;;;;4.00;3.40;;;;;;;19.88;72.13;156473.44;5053841;28;20451;-76
2022/07/04 05:43:10;;;;;;;4.23;3.00;;;;;;;20.11;71.20;156532.09;5056893;28;20438;-76
2022/07/04 05:45:36;;;;;;;3.00;2.80;;;;;;;20.32;70.69;156588.25;5040310;28;20470;-76
2022/07/04 05:48:03;;;;;;;4.43;3.17;;;;;;;20.48;69.54;156629.97;5041449;28;20557;-76
2022/07/04 05:50:30;;;;;;;3.63;3.33;;;;;;;20.75;68.65;156697.81;5033657;28;20976;-76
2022/07/04 05:52:58;;;;;;;3.53;3.23;;;;;;;20.83;68.84;156720.00;5043197;28;20453;-76
2022/07/04 05:55:25;;;;;;;2.83;2.57;;;;;;;20.95;68.01;156751.31;5049979;28;20447;-76
2022/07/04 05:57:53;;;;;;;3.33;3.03;;;;;;;21.08;66.85;156783.97;5050219;28;20492;-76
2022/07/04 06:00:19;;;;;;;5.37;3.30;;;;;;;21.18;66.12;156810.09;5064614;28;20478;-76
2022/07/04 06:02:46;;;;;;;3.13;2.83;;;;;;;21.28;65.12;156836.19;5034773;28;20448;-76
2022/07/04 06:05:13;;;;;;;3.50;2.97;;;;;;;21.13;65.93;156798.31;5032094;28;20551;-76
2022/07/04 06:07:39;;;;;;;3.30;3.00;;;;;;;21.34;66.29;156851.81;5042266;28;20490;-76
2022/07/04 06:10:09;;;;;;;4.63;2.80;;;;;;;21.32;64.59;156845.31;5052863;28;20431;-76
2022/07/04 06:12:37;;;;;;;4.63;2.80;;;;;;;21.33;65.75;156849.25;5051447;28;20441;-76
2022/07/04 06:15:06;;;;;;;4.00;3.60;;;;;;;21.34;64.99;156851.81;5052455;28;20441;-76
2022/07/04 06:17:32;;;;;;;3.20;2.90;;;;;;;21.18;64.51;156810.09;5049126;28;20813;-76
2022/07/04 06:19:59;;;;;;;4.97;3.23;;;;;;;21.09;65.51;156787.91;5051272;28;20506;-76
2022/07/04 06:22:26;;;;;;;4.30;2.97;;;;;;;21.21;64.42;156817.91;5053219;28;20517;-76
2022/07/04 06:24:53;;;;;;;4.00;3.47;;;;;;;21.18;64.41;156811.38;5053021;28;20429;-76
2022/07/04 06:27:22;;;;;;;3.47;3.17;;;;;;;21.14;64.77;156800.94;5050651;28;20964;-76
2022/07/04 06:29:48;;;;;;;4.47;3.20;;;;;;;21.19;66.68;156812.69;5051198;28;20783;-76
2022/07/04 06:32:15;;;;;;;4.57;3.53;;;;;;;21.27;64.41;156833.56;5051374;28;20908;-76
2022/07/04 06:37:26;;;;;;;4.10;3.70;;;;;;;21.16;64.38;156806.16;5039945;28;20946;-76
2022/07/04 06:39:52;;;;;;;3.30;3.00;;;;;;;21.30;64.74;156841.41;5053141;28;20470;-76
2022/07/04 06:42:21;;;;;;;4.40;3.20;;;;;;;21.52;62.80;156898.84;5053025;28;20471;-76
2022/07/04 06:44:50;;;;;;;4.27;3.90;;;;;;;21.38;62.85;156862.28;5050736;28;20823;-76
2022/07/04 06:47:16;;;;;;;3.40;3.20;;;;;;;21.38;63.19;156862.28;5052083;28;20567;-76
2022/07/04 06:49:43;;;;;;;3.60;3.30;;;;;;;21.44;63.56;156877.97;5049883;28;20566;-76
2022/07/04 06:52:10;;;;;;;4.07;3.70;;;;;;;21.59;62.95;156915.81;5034141;28;20459;-76
2022/07/04 06:54:36;;;;;;;3.20;2.90;;;;;;;21.66;63.51;156934.06;5032682;28;20515;-76
2022/07/04 06:57:04;;;;;;;5.60;3.60;;;;;;;21.80;63.71;156971.94;5043559;28;20933;-76
2022/07/04 06:59:32;;;;;;;3.67;3.20;;;;;;;22.07;63.14;157041.22;5051420;28;20529;-76
2022/07/04 07:01:59;;;;;;;7.20;3.60;;;;;;;22.15;62.13;157060.78;5051275;28;20451;-76
2022/07/04 07:04:25;;;;;;;4.03;3.10;;;;;;;22.36;62.06;157115.63;5049958;28;20454;-76
2022/07/04 07:06:52;;;;;;;3.23;3.00;;;;;;;22.24;60.02;157084.31;5050853;28;20445;-76
2022/07/04 07:09:19;;;;;;;3.77;3.43;;;;;;;22.05;61.55;157034.69;5042371;28;20522;-76
2022/07/04 07:11:45;;;;;;;5.90;4.10;;;;;;;21.80;62.64;156971.94;5030935;28;20513;-76
2022/07/04 07:14:12;;;;;;;3.60;3.30;;;;;;;21.80;62.29;156970.63;5041817;28;20447;-77
2022/07/04 07:16:40;;;;;;;3.50;3.20;;;;;;;22.03;61.91;157030.72;5048057;28;20466;-76
2022/07/04 07:19:07;;;;;;;3.37;3.07;;;;;;;21.98;61.47;157016.38;5032623;28;20643;-76
2022/07/04 07:21:34;;;;;;;4.13;3.30;;;;;;;22.03;60.81;157029.47;5035927;28;20454;-76
2022/07/04 07:24:01;;;;;;;3.80;3.50;;;;;;;22.02;61.95;157026.84;5049930;28;20451;-77
2022/07/04 07:26:27;;;;;;;5.60;3.30;;;;;;;22.15;63.22;157062.09;5051042;28;20928;-76
2022/07/04 07:28:54;;;;;;;4.33;3.40;;;;;;;22.34;61.25;157110.44;5049097;28;20528;-77
2022/07/04 07:31:21;;;;;;;5.10;3.50;;;;;;;22.17;61.11;157067.31;5051509;28;20431;-76
2022/07/04 07:33:49;;;;;;;3.63;3.33;;;;;;;22.03;61.36;157030.72;5048825;28;20435;-76
2022/07/04 07:36:15;;;;;;;3.83;3.43;;;;;;;21.99;61.62;157020.31;5049140;28;20520;-76
2022/07/04 07:38:42;;;;;;;6.23;4.33;;;;;;;21.83;62.11;156979.78;5050397;28;20949;-76
2022/07/04 07:41:10;;;;;;;6.33;3.50;;;;;;;21.84;62.61;156982.38;5051727;28;20434;-76
2022/07/04 07:43:37;;;;;;;4.20;3.80;;;;;;;21.75;62.79;156958.91;5051117;28;20478;-76
2022/07/04 07:46:05;;;;;;;3.93;3.63;;;;;;;21.93;61.53;157003.31;5040625;28;21235;-76
2022/07/04 07:48:32;;;;;;;4.00;3.60;;;;;;;21.57;62.42;156911.91;5054238;28;20470;-76
2022/07/04 07:51:00;;;;;;;5.23;3.30;;;;;;;21.67;63.83;156936.69;5059179;28;20561;-77
2022/07/04 07:53:27;;;;;;;4.40;3.67;;;;;;;22.06;62.59;157038.56;5048934;28;20452;-77
2022/07/04 07:55:53;;;;;;;3.83;3.53;;;;;;;22.08;63.16;157042.53;5047353;28;20451;-76
2022/07/04 07:58:20;;;;;;;3.63;3.33;;;;;;;21.99;63.10;157019.00;5048753;28;20482;-76
2022/07/04 08:00:47;;;;;;;3.37;3.07;;;;;;;22.13;63.84;157056.88;5049078;28;20479;-76
2022/07/04 08:05:59;;;;;;;6.47;4.03;;;;;;;22.05;62.98;157034.69;5045469;28;20509;-76
2022/07/04 08:08:26;;;;;;;4.83;3.80;;;;;;;22.00;63.04;157021.63;5045772;28;20466;-77
2022/07/04 08:10:53;;;;;;;6.90;3.70;;;;;;;22.11;63.32;157050.31;5041826;28;20490;-76
2022/07/04 08:13:20;;;;;;;4.57;4.03;;;;;;;21.98;62.52;157017.69;5047044;28;20454;-77
2022/07/04 08:15:47;;;;;;;3.80;3.50;;;;;;;21.98;64.07;157016.38;5043334;28;20512;-76
2022/07/04 08:18:14;;;;;;;4.50;3.97;;;;;;;22.00;63.15;157022.88;5048966;28;20918;-77
2022/07/04 08:20:41;;;;;;;5.00;3.40;;;;;;;22.10;64.34;157047.72;5037602;28;20473;-77
2022/07/04 08:23:09;;;;;;;7.07;4.60;;;;;;;22.20;62.92;157073.84;5031765;28;20431;-76
2022/07/04 08:25:36;;;;;;;5.83;4.10;;;;;;;22.11;63.12;157050.31;5037880;28;20457;-76
2022/07/04 08:28:02;;;;;;;4.53;3.60;;;;;;;22.12;62.94;157052.94;5048220;28;20550;-77
2022/07/04 08:30:29;;;;;;;5.67;4.30;;;;;;;22.04;62.28;157032.03;5047600;28;20533;-77
2022/07/04 08:32:56;;;;;;;4.37;3.90;;;;;;;21.90;62.85;156995.47;5051314;28;20439;-77
2022/07/04 08:35:22;;;;;;;4.27;3.97;;;;;;;21.98;63.14;157016.38;5049387;28;20447;-76
2022/07/04 08:37:53;;;;;;;5.07;4.57;;;;;;;22.15;63.15;157060.78;5047711;28;20554;-77
2022/07/04 08:40:22;;;;;;;4.33;4.03;;;;;;;22.06;63.86;157038.56;5032088;28;20467;-77
2022/07/04 08:42:49;;;;;;;4.40;4.00;;;;;;;22.09;64.19;157046.41;5045940;28;20456;-77
2022/07/04 08:45:17;;;;;;;6.10;3.80;;;;;;;22.16;64.97;157063.41;5045767;28;20503;-77
2022/07/04 08:47:44;;;;;;;6.00;3.63;;;;;;;22.14;63.22;157058.16;5050186;28;20544;-77
2022/07/04 08:50:13;;;;;;;4.83;4.17;;;;;;;22.23;62.95;157081.69;5048268;28;21003;-77
2022/07/04 08:52:42;;;;;;;4.17;3.87;;;;;;;22.26;62.94;157089.53;5048752;28;20480;-76
2022/07/04 09:00:40;;;;;;;10.57;3.57;;;;;;;22.05;64.69;157034.69;5030930;28;20478;-76
2022/07/04 09:03:08;;;;;;;4.33;3.93;;;;;;;22.14;63.24;157058.16;5048590;28;20465;-76
2022/07/04 09:05:35;;;;;;;5.77;4.77;;;;;;;21.87;63.94;156988.94;5050118;28;20439;-76
2022/07/04 09:08:03;;;;;;;4.50;4.03;;;;;;;21.92;63.63;157000.72;5048121;28;20459;-76
2022/07/04 09:10:30;;;;;;;7.10;4.20;;;;;;;21.94;63.47;157007.25;5050188;28;20431;-76
2022/07/04 09:12:59;;;;;;;4.27;3.80;;;;;;;22.22;64.96;157079.06;5042320;28;20547;-76
2022/07/04 09:15:26;;;;;;;5.50;3.67;;;;;;;22.44;63.03;157136.53;5048587;28;20459;-76
2022/07/04 09:17:53;;;;;;;4.53;3.53;;;;;;;22.49;61.61;157149.59;5047758;28;20470;-76
2022/07/04 09:20:21;;;;;;;6.83;4.10;;;;;;;22.44;62.01;157136.53;5047938;28;20464;-76
2022/07/04 09:22:50;;;;;;;5.23;4.03;;;;;;;22.33;64.30;157107.78;5048371;28;20537;-76
2022/07/04 09:25:18;;;;;;;6.30;4.40;;;;;;;22.51;61.73;157154.81;5047003;28;20486;-76
2022/07/04 09:27:47;;;;;;;4.73;4.03;;;;;;;22.66;62.05;157194.09;5032189;28;20450;-76
2022/07/04 09:30:17;;;;;;;5.27;4.43;;;;;;;23.13;60.92;157315.59;5050991;28;20435;-76
2022/07/04 09:32:46;;;;;;;4.40;3.37;;;;;;;23.54;61.18;157421.47;5051857;28;20465;-76
2022/07/04 09:35:14;;;;;;;4.83;3.73;;;;;;;23.82;59.28;157493.41;5049107;28;20940;-77
2022/07/04 09:37:45;;;;;;;4.50;4.10;;;;;;;24.11;57.53;157570.59;5049615;28;20520;-76
2022/07/04 09:40:21;;;;;;;9.17;4.13;;;;;;;24.06;56.21;157557.47;5050286;28;20569;-76
2022/07/04 09:42:48;;;;;;;4.97;4.50;;;;;;;23.77;57.45;157480.31;5051850;28;20537;-77
2022/07/04 09:45:17;;;;;;;5.10;4.07;;;;;;;23.76;57.46;157479.00;5050538;28;20525;-78
2022/07/04 09:47:46;;;;;;;4.30;3.87;;;;;;;24.45;56.04;157656.91;5050830;28;20443;-75
2022/07/04 09:50:15;;;;;;;4.97;4.57;;;;;;;24.37;54.13;157635.97;5047205;28;20508;-75
2022/07/04 09:52:50;;;;;;;5.30;3.93;;;;;;;24.78;54.57;157743.25;5052109;28;20830;-75
2022/07/04 09:55:30;;;;;;;3.60;3.27;;;;;;;24.60;55.66;157696.13;5051818;28;20434;-75
2022/07/04 09:57:58;;;;;;;5.73;4.00;;;;;;;24.57;55.04;157688.31;5051303;28;20492;-75
2022/07/04 10:00:28;;;;;;;6.30;4.40;;;;;;;24.28;53.83;157612.44;5052326;28;20458;-77
2022/07/04 10:02:56;;;;;;;6.47;3.70;;;;;;;24.64;56.58;157707.94;5048145;28;20455;-75
2022/07/04 10:05:25;;;;;;;4.37;4.00;;;;;;;25.15;53.81;157840.09;5049911;28;20447;-75
2022/07/04 10:07:52;;;;;;;4.83;3.27;;;;;;;25.38;52.93;157900.31;5048873;28;20449;-83
2022/07/04 10:10:30;;;;;;;4.20;3.90;;;;;;;25.27;51.41;157871.53;5050893;28;20453;-82
2022/07/04 10:12:59;;;;;;;5.00;3.63;;;;;;;25.23;51.40;157859.75;5051190;28;20545;-83
2022/07/04 10:15:27;;;;;;;4.03;3.63;;;;;;;25.72;49.72;157986.72;5050777;28;20439;-83
2022/07/04 10:17:54;;;;;;;3.70;3.37;;;;;;;25.88;49.53;158029.94;5046648;28;20466;-83
2022/07/04 10:20:21;;;;;;;4.77;3.63;;;;;;;26.17;49.52;158104.63;5048541;28;20578;-83
2022/07/04 10:22:48;;;;;;;4.57;3.87;;;;;;;25.83;50.73;158016.88;5046685;28;20907;-83
2022/07/04 10:25:15;;;;;;;4.20;3.90;;;;;;;25.11;49.88;157829.63;5047757;28;20451;-83
2022/07/04 10:27:42;;;;;;;4.10;3.80;;;;;;;24.94;51.11;157785.13;5046887;28;20467;-83
2022/07/04 10:30:12;;;;;;;6.00;3.57;;;;;;;25.03;51.31;157808.69;5064075;28;20984;-83
2022/07/04 10:32:42;;;;;;;5.27;3.70;;;;;;;24.92;51.72;157778.59;5051219;28;20562;-83
2022/07/04 10:35:09;;;;;;;4.40;4.00;;;;;;;25.13;51.40;157834.84;5050384;28;20537;-83
2022/07/04 10:38:02;;;;;;;4.30;3.90;;;;;;;25.55;51.21;157942.25;5050416;28;20489;-83
2022/07/04 10:40:43;;;;;;;5.93;3.67;;;;;;;25.15;50.56;157838.81;5034653;28;20541;-83
2022/07/04 10:43:41;;;;;;;3.60;3.30;;;;;;;25.41;51.64;157906.84;5050867;28;20431;-83
2022/07/04 10:46:41;;;;;;;4.10;3.80;;;;;;;25.66;50.45;157972.34;5049818;28;20455;-83
2022/07/04 10:49:19;;;;;;;3.50;3.20;;;;;;;25.38;50.70;157900.31;5051357;28;20926;-83
2022/07/04 10:51:47;;;;;;;4.80;3.70;;;;;;;25.45;50.42;157917.31;5028331;28;20462;-83
2022/07/04 10:54:15;;;;;;;5.20;3.93;;;;;;;25.69;50.78;157980.19;5052533;28;20447;-83
2022/07/04 10:56:53;;;;;;;6.50;4.77;;;;;;;24.88;51.71;157769.47;5050563;28;20542;-83
2022/07/04 10:59:25;;;;;;;4.90;4.20;;;;;;;24.91;51.70;157777.31;5034294;28;20504;-83
2022/07/04 11:02:02;;;;;;;4.30;3.90;;;;;;;24.83;51.69;157757.66;5049157;28;20497;-83
2022/07/04 11:05:08;;;;;;;5.50;4.30;;;;;;;24.80;51.74;157748.53;5067661;28;20435;-83
2022/07/04 11:07:58;;;;;;;4.60;4.20;;;;;;;24.67;52.43;157714.47;5043482;28;20542;-83
2022/07/04 11:10:26;;;;;;;9.07;3.90;;;;;;;24.52;53.23;157675.19;5050421;28;20454;-83
2022/07/04 11:13:17;;;;;;;4.33;3.93;;;;;;;24.49;53.36;157667.38;5051995;28;20442;-82
2022/07/04 11:16:03;;;;;;;4.83;4.30;;;;;;;24.57;52.53;157689.59;5049739;28;20439;-83
2022/07/04 11:18:30;;;;;;;4.73;4.33;;;;;;;24.62;51.70;157701.38;5053014;28;20449;-83
2022/07/04 11:20:57;;;;;;;4.17;3.87;;;;;;;24.37;52.61;157635.97;5049714;28;20458;-83
2022/07/04 11:23:25;;;;;;;5.70;3.70;;;;;;;24.62;53.04;157701.38;5051700;28;20549;-83
2022/07/04 11:25:54;;;;;;;5.57;4.63;;;;;;;24.60;52.67;157696.13;5051947;28;20542;-83
2022/07/04 11:28:22;;;;;;;4.90;4.40;;;;;;;24.56;52.52;157685.69;5050595;28;20447;-83
2022/07/04 11:30:50;;;;;;;4.60;4.20;;;;;;;24.18;52.67;157588.91;5051149;28;20515;-84
2022/07/04 11:33:21;;;;;;;4.50;4.10;;;;;;;24.51;53.74;157672.59;5049756;28;20446;-83
2022/07/04 11:36:02;;;;;;;4.90;4.40;;;;;;;24.59;53.30;157693.53;5051215;28;20438;-83
2022/07/04 11:38:50;;;;;;;4.60;4.30;;;;;;;24.59;52.18;157693.53;5049094;28;20911;-83
2022/07/04 11:46:51;;;;;;;5.03;4.63;;;;;;;24.27;52.72;157609.81;5050392;28;20424;-83
2022/07/04 11:49:17;;;;;;;4.73;4.33;;;;;;;24.26;53.31;157607.19;5048795;28;20447;-85
2022/07/04 11:51:45;;;;;;;9.50;4.87;;;;;;;24.30;52.90;157619.00;5051618;28;20435;-83
2022/07/04 11:54:13;;;;;;;4.70;4.30;;;;;;;24.57;52.96;157688.31;5051621;28;20462;-85